Terminal Aerodrome Forecast
Issued by NWS Cleveland, OH

Home | Current Version | Previous Version | Graphics & Text | Print | Product List | Glossary On
Versions: 1 2 3 4 5 6 7 8 9 10 11 12 13 14 15 16 17 18
632
FTUS41 KCLE 210540
TAFYNG
TAF
KYNG 210540Z 2106/2206 VRB03KT P6SM BKN100
     FM211400 23005KT P6SM SCT250
     FM212200 23005KT P6SM BKN200
     FM220300 20004KT P6SM SCT150
     FM220500 20004KT P6SM BKN130=

USA.gov is the U.S. government's official web portal to all federal, state and local government web resources and services.